createdAt,value
2023-03-07T00:01:10.719Z,2.30
2023-03-07T00:03:39.127Z,2.30
2023-03-07T00:06:11.978Z,2.30
2023-03-07T00:08:39.541Z,2.40
2023-03-07T00:11:09.076Z,2.40
2023-03-07T00:13:42.459Z,2.40
2023-03-07T00:16:14.509Z,2.40
2023-03-07T00:18:42.840Z,2.40
2023-03-07T00:21:13.645Z,2.40
2023-03-07T00:23:43.671Z,2.40
2023-03-07T00:26:23.106Z,2.40
2023-03-07T00:28:52.730Z,2.40
2023-03-07T00:31:21.048Z,2.40
2023-03-07T00:33:49.172Z,2.40
2023-03-07T00:36:21.866Z,2.50
2023-03-07T00:38:50.006Z,2.50
2023-03-07T00:41:20.762Z,2.50
2023-03-07T00:43:48.557Z,2.50
2023-03-07T00:46:17.478Z,2.50
2023-03-07T00:48:45.306Z,2.50
2023-03-07T00:51:14.809Z,2.40
2023-03-07T00:53:42.840Z,2.50
2023-03-07T00:56:22.518Z,2.40
2023-03-07T00:58:50.736Z,2.40
2023-03-07T01:01:21.851Z,2.40
2023-03-07T01:03:50.259Z,2.40
2023-03-07T01:06:20.266Z,2.40
2023-03-07T01:08:47.780Z,2.40
2023-03-07T01:11:15.173Z,2.40
2023-03-07T01:13:42.533Z,2.40
2023-03-07T01:16:42.508Z,2.40
2023-03-07T01:19:12.875Z,2.40
2023-03-07T01:21:44.587Z,2.40
2023-03-07T01:24:14.993Z,2.40
2023-03-07T01:26:42.759Z,2.40
2023-03-07T01:29:11.788Z,2.40
2023-03-07T01:31:39.289Z,2.50
2023-03-07T01:34:07.032Z,2.40
2023-03-07T01:36:36.250Z,2.40
2023-03-07T01:39:14.870Z,2.40
2023-03-07T01:41:43.643Z,2.40
2023-03-07T01:44:26.190Z,2.50
2023-03-07T01:46:55.554Z,2.50
2023-03-07T01:49:46.498Z,2.40
2023-03-07T01:52:19.080Z,2.40
2023-03-07T01:54:51.416Z,2.40
2023-03-07T01:57:22.062Z,2.50
2023-03-07T01:59:55.139Z,2.40
2023-03-07T02:02:23.188Z,2.40
2023-03-07T02:05:06.117Z,2.40
2023-03-07T02:07:38.205Z,2.40
2023-03-07T02:10:11.211Z,2.40
2023-03-07T02:12:39.663Z,2.40
2023-03-07T02:15:10.245Z,2.40
2023-03-07T02:17:37.809Z,2.30
2023-03-07T02:20:23.654Z,2.30
2023-03-07T02:22:51.370Z,2.30
2023-03-07T02:25:37.485Z,2.30
2023-03-07T02:28:05.697Z,2.30
2023-03-07T02:30:32.938Z,2.30
2023-03-07T02:33:00.122Z,2.30
2023-03-07T02:35:27.441Z,2.30
2023-03-07T02:38:00.493Z,2.30
2023-03-07T02:40:31.028Z,2.30
2023-03-07T02:43:01.397Z,2.30
2023-03-07T02:45:28.855Z,2.30
2023-03-07T02:47:55.975Z,2.30
2023-03-07T02:50:23.093Z,2.30
2023-03-07T02:52:50.522Z,2.30
2023-03-07T02:55:17.824Z,2.30
2023-03-07T02:57:45.189Z,2.30
2023-03-07T03:00:13.442Z,2.20
2023-03-07T03:02:40.917Z,2.20
2023-03-07T03:05:08.600Z,2.20
2023-03-07T03:07:35.763Z,2.20
2023-03-07T03:10:04.009Z,2.10
2023-03-07T03:12:31.229Z,2.20
2023-03-07T03:14:58.559Z,2.10
2023-03-07T03:17:25.772Z,2.10
2023-03-07T03:19:52.963Z,2.10
2023-03-07T03:22:20.850Z,2.10
2023-03-07T03:24:48.220Z,2.10
2023-03-07T03:27:15.494Z,2.10
2023-03-07T03:29:43.071Z,2.00
2023-03-07T03:32:10.524Z,2.10
2023-03-07T03:34:38.559Z,2.10
2023-03-07T03:37:05.732Z,2.10
2023-03-07T03:39:32.947Z,2.10
2023-03-07T03:42:00.301Z,2.10
2023-03-07T03:44:27.520Z,2.10
2023-03-07T03:46:56.004Z,2.10
2023-03-07T03:49:23.310Z,2.10
2023-03-07T03:51:50.523Z,2.10
2023-03-07T03:54:17.923Z,2.20
2023-03-07T03:56:47.713Z,2.20
2023-03-07T03:59:15.151Z,2.20
2023-03-07T04:01:42.567Z,2.20
2023-03-07T04:04:10.039Z,2.20
2023-03-07T04:06:37.178Z,2.20
2023-03-07T04:09:05.691Z,2.20
2023-03-07T04:11:33.515Z,2.20
2023-03-07T04:14:00.611Z,2.30
2023-03-07T04:16:28.186Z,2.30
2023-03-07T04:18:55.792Z,2.30
2023-03-07T04:21:23.680Z,2.30
2023-03-07T04:23:55.708Z,2.30
2023-03-07T04:26:23.533Z,2.30
2023-03-07T04:28:51.054Z,2.40
2023-03-07T04:31:19.611Z,2.40
2023-03-07T04:33:48.107Z,2.40
2023-03-07T04:36:16.772Z,2.40
2023-03-07T04:38:44.824Z,2.40
2023-03-07T04:41:15.303Z,2.40
2023-03-07T04:43:43.122Z,2.50
2023-03-07T04:46:12.203Z,2.50
2023-03-07T04:48:39.501Z,2.50
2023-03-07T04:51:07.120Z,2.50
2023-03-07T04:53:34.535Z,2.50
2023-03-07T04:56:17.025Z,2.60
2023-03-07T04:58:45.212Z,2.60
2023-03-07T05:01:12.891Z,2.60
2023-03-07T05:03:40.189Z,2.60
2023-03-07T05:06:10.825Z,2.60
2023-03-07T05:08:38.361Z,2.60
2023-03-07T05:11:06.039Z,2.60
2023-03-07T05:13:33.494Z,2.70
2023-03-07T05:16:01.332Z,2.70
2023-03-07T05:18:31.796Z,2.70
2023-03-07T05:20:59.461Z,2.70
2023-03-07T05:23:26.744Z,2.70
2023-03-07T05:25:54.151Z,2.70
2023-03-07T05:28:21.404Z,2.70
2023-03-07T05:30:49.037Z,2.70
2023-03-07T05:33:16.521Z,2.80
2023-03-07T05:35:44.035Z,2.70
2023-03-07T05:38:11.464Z,2.80
2023-03-07T05:40:57.228Z,2.80
2023-03-07T05:43:26.816Z,2.80
2023-03-07T05:45:54.176Z,2.80
2023-03-07T05:48:21.504Z,2.80
2023-03-07T05:50:48.765Z,2.80
2023-03-07T05:53:16.348Z,2.80
2023-03-07T05:55:44.031Z,2.90
2023-03-07T05:58:11.343Z,2.90
2023-03-07T06:00:38.539Z,2.90
2023-03-07T06:03:06.010Z,2.90
2023-03-07T06:05:33.205Z,2.90
2023-03-07T06:08:00.632Z,2.90
2023-03-07T06:10:28.243Z,3.00
2023-03-07T06:12:56.344Z,2.90
2023-03-07T06:15:25.591Z,3.00
2023-03-07T06:17:56.040Z,3.00
2023-03-07T06:20:23.301Z,3.00
2023-03-07T06:22:50.662Z,3.00
2023-03-07T06:25:21.972Z,3.10
2023-03-07T06:27:49.707Z,3.00
2023-03-07T06:30:17.057Z,3.00
2023-03-07T06:32:44.438Z,3.10
2023-03-07T06:35:11.598Z,3.10
2023-03-07T06:37:38.949Z,3.10
2023-03-07T06:40:06.961Z,3.10
2023-03-07T06:42:34.250Z,3.10
2023-03-07T06:45:01.761Z,3.10
2023-03-07T06:47:29.341Z,3.10
2023-03-07T06:49:56.483Z,3.10
2023-03-07T06:52:24.051Z,3.20
2023-03-07T06:54:51.399Z,3.20
2023-03-07T06:57:18.692Z,3.20
2023-03-07T06:59:46.133Z,3.20
2023-03-07T07:02:15.331Z,3.30
2023-03-07T07:04:42.658Z,3.30
2023-03-07T07:07:10.077Z,3.30
2023-03-07T07:09:37.316Z,3.30
2023-03-07T07:12:06.188Z,3.30
2023-03-07T07:14:34.790Z,3.30
2023-03-07T07:17:02.088Z,3.30
2023-03-07T07:19:29.388Z,3.40
2023-03-07T07:21:57.492Z,3.40
2023-03-07T07:24:24.844Z,3.40
2023-03-07T07:26:52.323Z,3.40
2023-03-07T07:29:20.019Z,3.50
2023-03-07T07:31:47.245Z,3.50
2023-03-07T07:34:14.442Z,3.50
2023-03-07T07:36:44.682Z,3.50
2023-03-07T07:39:13.664Z,3.50
2023-03-07T07:41:41.346Z,3.60
2023-03-07T07:44:08.881Z,3.60
2023-03-07T07:46:36.124Z,3.60
2023-03-07T07:49:03.950Z,3.60
2023-03-07T07:51:31.167Z,3.70
2023-03-07T07:53:58.473Z,3.70
2023-03-07T07:56:26.035Z,3.70
2023-03-07T07:58:53.336Z,3.70
2023-03-07T08:01:25.339Z,3.80
2023-03-07T08:03:53.090Z,3.80
2023-03-07T08:06:26.365Z,3.80
2023-03-07T08:08:54.797Z,3.90
2023-03-07T08:11:23.528Z,3.90
2023-03-07T08:13:50.903Z,3.90
2023-03-07T08:16:26.816Z,3.90
2023-03-07T08:18:56.552Z,3.90
2023-03-07T08:21:25.655Z,4.00
2023-03-07T08:23:54.494Z,4.00
2023-03-07T08:26:22.253Z,4.00
2023-03-07T08:28:49.860Z,4.10
2023-03-07T08:31:22.586Z,4.10
2023-03-07T08:33:50.995Z,4.20
2023-03-07T08:36:18.608Z,4.20
2023-03-07T08:38:52.668Z,4.30
2023-03-07T08:41:21.916Z,4.30
2023-03-07T08:43:49.648Z,4.30
2023-03-07T08:46:17.555Z,4.40
2023-03-07T08:48:44.768Z,4.40
2023-03-07T08:51:17.085Z,4.50
2023-03-07T08:53:46.467Z,4.50
2023-03-07T08:56:19.037Z,4.60
2023-03-07T08:58:46.641Z,4.60
2023-03-07T09:01:13.893Z,4.60
2023-03-07T09:03:41.041Z,4.60
2023-03-07T09:06:08.684Z,4.60
2023-03-07T09:08:35.997Z,4.60
2023-03-07T09:11:05.672Z,4.60
2023-03-07T09:13:36.227Z,4.60
2023-03-07T09:16:08.497Z,4.60
2023-03-07T09:18:36.611Z,4.70
2023-03-07T09:21:05.810Z,4.60
2023-03-07T09:23:33.597Z,4.60
2023-03-07T09:26:02.024Z,4.70
2023-03-07T09:28:29.569Z,4.70
2023-03-07T09:30:56.875Z,4.70
2023-03-07T09:33:24.260Z,4.80
2023-03-07T09:35:51.630Z,4.80
2023-03-07T09:38:19.500Z,4.80
2023-03-07T09:40:48.333Z,4.90
2023-03-07T09:43:26.354Z,4.90
2023-03-07T09:46:16.709Z,4.90
2023-03-07T09:49:09.614Z,4.90
2023-03-07T09:51:40.274Z,5.00
2023-03-07T09:54:13.693Z,5.00
2023-03-07T09:56:53.116Z,5.00
2023-03-07T09:59:54.425Z,5.00
2023-03-07T10:02:39.529Z,5.00
2023-03-07T10:05:26.007Z,5.10
2023-03-07T10:07:53.834Z,5.10
2023-03-07T10:10:27.593Z,5.10
2023-03-07T10:13:08.903Z,5.20
2023-03-07T10:15:54.842Z,5.20
2023-03-07T10:18:26.647Z,5.30
2023-03-07T10:21:18.647Z,5.30
2023-03-07T10:24:24.108Z,5.30
2023-03-07T10:27:04.666Z,5.30
2023-03-07T10:29:48.419Z,5.30
2023-03-07T10:32:29.881Z,5.30
2023-03-07T10:35:05.381Z,5.30
2023-03-07T10:38:00.728Z,5.30
2023-03-07T10:41:15.488Z,5.40
2023-03-07T10:43:44.008Z,5.40
2023-03-07T10:46:27.066Z,5.50
2023-03-07T10:49:15.072Z,5.50
2023-03-07T10:52:13.252Z,5.60
2023-03-07T10:54:40.605Z,5.60
2023-03-07T10:57:14.530Z,5.60
2023-03-07T10:59:48.719Z,5.60
2023-03-07T11:02:33.190Z,5.50
2023-03-07T11:05:01.277Z,5.40
2023-03-07T11:07:30.530Z,5.20
2023-03-07T11:09:59.592Z,5.10
2023-03-07T11:12:29.824Z,4.90
2023-03-07T11:15:21.944Z,4.80
2023-03-07T11:17:50.826Z,4.70
2023-03-07T11:20:30.815Z,4.60
2023-03-07T11:23:17.202Z,4.50
2023-03-07T11:25:45.147Z,4.40
2023-03-07T11:28:36.434Z,4.30
2023-03-07T11:31:06.592Z,4.20
2023-03-07T11:34:14.099Z,4.20
2023-03-07T11:36:44.406Z,4.20
2023-03-07T11:39:20.473Z,4.20
2023-03-07T11:41:54.091Z,4.20
2023-03-07T11:44:56.146Z,4.30
2023-03-07T11:47:35.621Z,4.30
2023-03-07T11:50:31.521Z,4.40
2023-03-07T11:53:07.550Z,4.50
2023-03-07T11:55:50.033Z,4.60
2023-03-07T11:58:29.784Z,4.70
2023-03-07T12:01:01.916Z,4.80
2023-03-07T12:03:52.288Z,4.80
2023-03-07T12:06:50.301Z,4.90
2023-03-07T12:09:40.321Z,5.00
2023-03-07T12:12:39.440Z,5.10
2023-03-07T12:15:31.245Z,5.20
2023-03-07T12:18:26.098Z,5.20
2023-03-07T12:21:18.002Z,5.30
2023-03-07T12:23:52.280Z,5.40
2023-03-07T12:26:36.859Z,5.50
2023-03-07T12:29:16.368Z,5.50
2023-03-07T12:31:48.593Z,5.60
2023-03-07T12:34:39.930Z,5.60
2023-03-07T12:37:22.460Z,5.70
2023-03-07T12:39:58.774Z,5.70
2023-03-07T12:42:47.627Z,5.70
2023-03-07T12:45:22.164Z,5.70
2023-03-07T12:47:58.204Z,5.70
2023-03-07T12:50:47.286Z,5.80
2023-03-07T12:53:43.016Z,5.80
2023-03-07T12:56:19.245Z,5.80
2023-03-07T12:59:13.418Z,5.90
2023-03-07T13:02:12.219Z,5.90
2023-03-07T13:04:42.876Z,5.90
2023-03-07T13:07:27.854Z,5.90
2023-03-07T13:10:01.300Z,5.90
2023-03-07T13:12:29.769Z,5.80
2023-03-07T13:14:58.498Z,5.80
2023-03-07T13:17:32.113Z,5.80
2023-03-07T13:20:30.070Z,5.80
2023-03-07T13:23:02.396Z,5.70
2023-03-07T13:25:43.143Z,5.70
2023-03-07T13:28:32.315Z,5.60
2023-03-07T13:31:20.877Z,5.60
2023-03-07T13:33:51.213Z,5.60
2023-03-07T13:36:39.004Z,5.60
2023-03-07T13:39:37.607Z,5.60
2023-03-07T13:42:05.962Z,5.60
2023-03-07T13:44:42.064Z,5.70
2023-03-07T13:47:44.160Z,5.70
2023-03-07T13:50:49.679Z,5.60
2023-03-07T13:53:40.165Z,5.60
2023-03-07T13:56:17.165Z,5.60
2023-03-07T13:59:04.370Z,5.60
2023-03-07T14:01:45.524Z,5.60
2023-03-07T14:04:38.992Z,5.80
2023-03-07T14:07:21.783Z,6.20
2023-03-07T14:09:57.528Z,6.40
2023-03-07T14:12:43.840Z,6.40
2023-03-07T14:15:43.041Z,6.30
2023-03-07T14:18:28.298Z,6.30
2023-03-07T14:21:26.357Z,6.20
2023-03-07T14:24:05.934Z,6.20
2023-03-07T14:26:50.134Z,6.20
2023-03-07T14:29:23.657Z,6.20
2023-03-07T14:31:58.955Z,6.20
2023-03-07T14:34:30.900Z,6.10
2023-03-07T14:37:02.036Z,6.00
2023-03-07T14:40:08.907Z,6.00
2023-03-07T14:43:04.802Z,5.90
2023-03-07T14:45:59.781Z,5.90
2023-03-07T14:48:54.164Z,5.90
2023-03-07T14:51:26.175Z,6.00
2023-03-07T14:53:53.832Z,6.00
2023-03-07T14:56:35.052Z,6.00
2023-03-07T14:59:04.035Z,6.00
2023-03-07T15:01:35.656Z,6.00
2023-03-07T15:04:03.881Z,6.10
2023-03-07T15:06:31.915Z,6.10
2023-03-07T15:09:01.617Z,6.20
2023-03-07T15:11:48.432Z,6.20
2023-03-07T15:14:23.075Z,6.20
2023-03-07T15:16:53.430Z,6.20
2023-03-07T15:19:38.980Z,6.10
2023-03-07T15:22:17.334Z,6.00
2023-03-07T15:24:46.905Z,6.00
2023-03-07T15:27:18.835Z,5.90
2023-03-07T15:29:54.479Z,5.90
2023-03-07T15:32:37.818Z,5.90
2023-03-07T15:35:15.103Z,5.80
2023-03-07T15:38:01.791Z,5.80
2023-03-07T15:40:36.831Z,5.70
2023-03-07T15:43:04.730Z,5.70
2023-03-07T15:46:02.890Z,5.70
2023-03-07T15:48:48.950Z,5.60
2023-03-07T15:51:19.154Z,5.60
2023-03-07T15:53:58.768Z,5.60
2023-03-07T15:56:37.719Z,5.50
2023-03-07T15:59:17.377Z,5.50
2023-03-07T16:01:44.667Z,5.40
2023-03-07T16:04:38.585Z,5.30
2023-03-07T16:07:08.243Z,5.20
2023-03-07T16:09:35.363Z,5.20
2023-03-07T16:12:02.605Z,5.10
2023-03-07T16:14:32.828Z,5.00
2023-03-07T16:17:03.986Z,5.00
2023-03-07T16:19:31.404Z,5.00
2023-03-07T16:21:59.075Z,5.00
2023-03-07T16:24:26.380Z,5.00
2023-03-07T16:26:53.897Z,5.00
2023-03-07T16:29:23.157Z,4.90
2023-03-07T16:31:50.555Z,4.90
2023-03-07T16:34:20.474Z,4.90
2023-03-07T16:36:48.385Z,4.90
2023-03-07T16:39:16.522Z,4.80
2023-03-07T16:41:47.551Z,4.80
2023-03-07T16:44:20.610Z,4.70
2023-03-07T16:46:58.004Z,4.70
2023-03-07T16:49:25.148Z,4.60
2023-03-07T16:52:04.529Z,4.60
2023-03-07T16:54:34.161Z,4.50
2023-03-07T16:57:03.036Z,4.50
2023-03-07T16:59:36.365Z,4.40
2023-03-07T17:02:21.383Z,4.40
2023-03-07T17:04:48.824Z,4.30
2023-03-07T17:07:22.165Z,4.20
2023-03-07T17:09:54.096Z,4.20
2023-03-07T17:12:23.257Z,4.10
2023-03-07T17:14:50.785Z,4.10
2023-03-07T17:17:22.805Z,4.00
2023-03-07T17:19:50.885Z,4.00
2023-03-07T17:22:20.299Z,3.90
2023-03-07T17:24:47.465Z,3.90
2023-03-07T17:27:14.737Z,3.90
2023-03-07T17:29:54.633Z,3.80
2023-03-07T17:32:24.443Z,3.80
2023-03-07T17:34:51.835Z,3.80
2023-03-07T17:37:19.243Z,3.70
2023-03-07T17:39:46.631Z,3.70
2023-03-07T17:42:13.876Z,3.70
2023-03-07T17:44:41.959Z,3.60
2023-03-07T17:47:09.299Z,3.60
2023-03-07T17:49:38.393Z,3.50
2023-03-07T17:52:07.265Z,3.50
2023-03-07T17:54:34.897Z,3.50
2023-03-07T17:57:03.175Z,3.50
2023-03-07T17:59:33.157Z,3.40
2023-03-07T18:02:00.885Z,3.40
2023-03-07T18:04:31.309Z,3.40
2023-03-07T18:06:59.958Z,3.40
2023-03-07T18:09:27.341Z,3.30
2023-03-07T18:11:54.803Z,3.30
2023-03-07T18:14:22.442Z,3.30
2023-03-07T18:16:50.031Z,3.30
2023-03-07T18:19:26.283Z,3.20
2023-03-07T18:21:56.525Z,3.20
2023-03-07T18:24:32.342Z,3.10
2023-03-07T18:26:59.988Z,3.10
2023-03-07T18:29:29.116Z,3.10
2023-03-07T18:31:57.080Z,3.00
2023-03-07T18:34:25.273Z,3.00
2023-03-07T18:36:54.606Z,3.00
2023-03-07T18:39:23.498Z,3.00
2023-03-07T18:41:51.587Z,3.00
2023-03-07T18:44:19.946Z,3.00
2023-03-07T18:46:47.377Z,3.00
2023-03-07T18:49:15.112Z,2.90
2023-03-07T18:51:46.164Z,2.90
2023-03-07T18:54:14.412Z,2.80
2023-03-07T18:56:49.294Z,2.80
2023-03-07T18:59:22.673Z,2.80
2023-03-07T19:01:50.483Z,2.80
2023-03-07T19:04:18.683Z,2.80
2023-03-07T19:06:47.663Z,2.80
2023-03-07T19:09:20.410Z,2.70
2023-03-07T19:11:51.462Z,2.70
2023-03-07T19:14:18.839Z,2.70
2023-03-07T19:16:46.244Z,2.70
2023-03-07T19:19:13.606Z,2.60
2023-03-07T19:21:40.859Z,2.60
2023-03-07T19:24:11.707Z,2.60
2023-03-07T19:26:39.083Z,2.60
2023-03-07T19:29:06.340Z,2.60
2023-03-07T19:31:36.786Z,2.50
2023-03-07T19:34:06.719Z,2.50
2023-03-07T19:36:35.960Z,2.50
2023-03-07T19:39:04.036Z,2.50
2023-03-07T19:41:32.613Z,2.50
2023-03-07T19:44:01.332Z,2.50
2023-03-07T19:46:28.687Z,2.50
2023-03-07T19:48:56.532Z,2.40
2023-03-07T19:51:27.256Z,2.50
2023-03-07T19:53:57.309Z,2.40
2023-03-07T19:56:27.889Z,2.40
2023-03-07T19:58:55.512Z,2.50
2023-03-07T20:01:23.648Z,2.50
2023-03-07T20:03:51.362Z,2.40
2023-03-07T20:06:30.371Z,2.40
2023-03-07T20:09:28.121Z,2.40
2023-03-07T20:11:56.557Z,2.40
2023-03-07T20:14:24.049Z,2.40
2023-03-07T20:16:51.419Z,2.40
2023-03-07T20:19:23.562Z,2.40
2023-03-07T20:21:51.172Z,2.40
2023-03-07T20:24:24.452Z,2.40
2023-03-07T20:26:51.803Z,2.40
2023-03-07T20:29:19.074Z,2.30
2023-03-07T20:31:51.133Z,2.30
2023-03-07T20:34:21.482Z,2.30
2023-03-07T20:36:49.739Z,2.30
2023-03-07T20:39:17.308Z,2.30
2023-03-07T20:41:44.856Z,2.30
2023-03-07T20:44:14.419Z,2.20
2023-03-07T20:46:42.205Z,2.20
2023-03-07T20:49:18.522Z,2.20
2023-03-07T20:51:46.081Z,2.20
2023-03-07T20:54:16.416Z,2.10
2023-03-07T20:56:44.895Z,2.20
2023-03-07T20:59:15.794Z,2.20
2023-03-07T21:01:43.887Z,2.10
2023-03-07T21:04:15.313Z,2.10
2023-03-07T21:06:44.384Z,2.10
2023-03-07T21:09:12.976Z,2.10
2023-03-07T21:11:48.218Z,2.00
2023-03-07T21:14:17.188Z,2.00
2023-03-07T21:16:44.667Z,2.00
2023-03-07T21:19:12.392Z,2.00
2023-03-07T21:21:39.980Z,2.10
2023-03-07T21:24:08.945Z,2.00
2023-03-07T21:26:36.703Z,2.00
2023-03-07T21:29:04.759Z,2.00
2023-03-07T21:31:34.859Z,1.90
2023-03-07T21:34:05.220Z,1.90
2023-03-07T21:36:33.426Z,1.90
2023-03-07T21:39:02.208Z,1.90
2023-03-07T21:41:29.637Z,1.90
2023-03-07T21:44:00.957Z,1.90
2023-03-07T21:46:28.840Z,1.90
2023-03-07T21:48:59.550Z,1.80
2023-03-07T21:51:26.818Z,1.80
2023-03-07T21:53:57.518Z,1.80
2023-03-07T21:56:24.763Z,1.80
2023-03-07T21:58:52.758Z,1.80
2023-03-07T22:01:27.834Z,1.80
2023-03-07T22:03:56.018Z,1.80
2023-03-07T22:06:23.648Z,1.80
2023-03-07T22:08:51.049Z,1.80
2023-03-07T22:11:18.150Z,1.80
2023-03-07T22:13:45.457Z,1.70
2023-03-07T22:16:15.889Z,1.70
2023-03-07T22:18:43.532Z,1.70
2023-03-07T22:21:14.314Z,1.70
2023-03-07T22:23:42.447Z,1.70
2023-03-07T22:26:11.927Z,1.60
2023-03-07T22:28:40.861Z,1.60
2023-03-07T22:31:11.129Z,1.60
2023-03-07T22:33:38.956Z,1.60
2023-03-07T22:36:07.451Z,1.60
2023-03-07T22:38:35.277Z,1.60
2023-03-07T22:41:12.713Z,1.60
2023-03-07T22:43:40.011Z,1.60
2023-03-07T22:46:08.321Z,1.60
2023-03-07T22:48:35.526Z,1.50
2023-03-07T22:51:03.229Z,1.60
2023-03-07T22:53:32.290Z,1.50
2023-03-07T22:56:00.862Z,1.50
2023-03-07T22:58:29.207Z,1.50
2023-03-07T23:00:56.517Z,1.50
2023-03-07T23:03:23.877Z,1.40
2023-03-07T23:05:51.390Z,1.40
2023-03-07T23:08:18.525Z,1.40
2023-03-07T23:10:45.919Z,1.40
2023-03-07T23:13:12.967Z,1.40
2023-03-07T23:15:41.714Z,1.40
2023-03-07T23:18:09.235Z,1.30
2023-03-07T23:20:39.114Z,1.30
2023-03-07T23:23:06.585Z,1.30
2023-03-07T23:25:36.841Z,1.30
2023-03-07T23:28:04.028Z,1.30
2023-03-07T23:30:31.165Z,1.30
2023-03-07T23:32:58.402Z,1.30
2023-03-07T23:35:25.558Z,1.30
2023-03-07T23:37:53.017Z,1.20
2023-03-07T23:40:21.649Z,1.20
2023-03-07T23:42:48.823Z,1.20
2023-03-07T23:45:15.952Z,1.20
2023-03-07T23:47:43.325Z,1.20
2023-03-07T23:50:11.188Z,1.20
2023-03-07T23:52:38.374Z,1.20
2023-03-07T23:55:09.343Z,1.20
2023-03-07T23:57:37.826Z,1.10
